sensor_id;sensor_type;location;lat;lon;timestamp;temperature;humidity
11536;DHT22;5824;49.336;8.652;2023-05-07T00:02:07;16.30;1.00
11536;DHT22;5824;49.336;8.652;2023-05-07T00:04:32;16.30;1.00
11536;DHT22;5824;49.336;8.652;2023-05-07T00:07:02;16.20;1.00
11536;DHT22;5824;49.336;8.652;2023-05-07T00:09:27;16.00;1.00
11536;DHT22;5824;49.336;8.652;2023-05-07T00:11:53;16.00;1.00
11536;DHT22;5824;49.336;8.652;2023-05-07T00:14:18;15.80;1.00
11536;DHT22;5824;49.336;8.652;2023-05-07T00:16:44;15.80;1.00
11536;DHT22;5824;49.336;8.652;2023-05-07T00:19:10;15.90;1.00
11536;DHT22;5824;49.336;8.652;2023-05-07T00:21:35;15.90;1.00
11536;DHT22;5824;49.336;8.652;2023-05-07T00:24:01;15.90;1.00
11536;DHT22;5824;49.336;8.652;2023-05-07T00:26:26;15.90;1.00
11536;DHT22;5824;49.336;8.652;2023-05-07T00:28:52;15.80;1.00
11536;DHT22;5824;49.336;8.652;2023-05-07T00:31:17;15.80;1.00
11536;DHT22;5824;49.336;8.652;2023-05-07T00:33:43;15.90;1.00
11536;DHT22;5824;49.336;8.652;2023-05-07T00:36:08;15.90;1.00
11536;DHT22;5824;49.336;8.652;2023-05-07T00:38:34;15.90;1.00
11536;DHT22;5824;49.336;8.652;2023-05-07T00:40:59;15.80;1.00
11536;DHT22;5824;49.336;8.652;2023-05-07T00:43:25;15.80;1.00
11536;DHT22;5824;49.336;8.652;2023-05-07T00:45:51;15.80;1.00
11536;DHT22;5824;49.336;8.652;2023-05-07T00:48:16;15.80;1.00
11536;DHT22;5824;49.336;8.652;2023-05-07T00:50:42;15.80;1.00
11536;DHT22;5824;49.336;8.652;2023-05-07T00:53:08;15.80;1.00
11536;DHT22;5824;49.336;8.652;2023-05-07T00:55:35;15.80;1.00
11536;DHT22;5824;49.336;8.652;2023-05-07T00:58:01;15.90;1.00
11536;DHT22;5824;49.336;8.652;2023-05-07T01:00:26;15.80;1.00
11536;DHT22;5824;49.336;8.652;2023-05-07T01:02:52;15.80;1.00
11536;DHT22;5824;49.336;8.652;2023-05-07T01:05:19;15.70;1.00
11536;DHT22;5824;49.336;8.652;2023-05-07T01:07:46;15.70;1.00
11536;DHT22;5824;49.336;8.652;2023-05-07T01:10:12;15.70;1.00
11536;DHT22;5824;49.336;8.652;2023-05-07T01:12:38;15.60;1.00
11536;DHT22;5824;49.336;8.652;2023-05-07T01:15:05;15.50;1.00
11536;DHT22;5824;49.336;8.652;2023-05-07T01:17:37;15.40;1.00
11536;DHT22;5824;49.336;8.652;2023-05-07T01:20:04;15.40;1.00
11536;DHT22;5824;49.336;8.652;2023-05-07T01:22:32;15.30;1.00
11536;DHT22;5824;49.336;8.652;2023-05-07T01:24:58;15.20;1.00
11536;DHT22;5824;49.336;8.652;2023-05-07T01:27:25;15.20;1.00
11536;DHT22;5824;49.336;8.652;2023-05-07T01:29:51;15.10;1.00
11536;DHT22;5824;49.336;8.652;2023-05-07T01:32:19;15.00;1.00
11536;DHT22;5824;49.336;8.652;2023-05-07T01:34:48;15.00;1.00
11536;DHT22;5824;49.336;8.652;2023-05-07T01:37:14;15.00;1.00
11536;DHT22;5824;49.336;8.652;2023-05-07T01:39:41;14.90;1.00
11536;DHT22;5824;49.336;8.652;2023-05-07T01:42:07;14.90;1.00
11536;DHT22;5824;49.336;8.652;2023-05-07T01:44:33;14.80;1.00
11536;DHT22;5824;49.336;8.652;2023-05-07T01:46:59;14.80;1.00
11536;DHT22;5824;49.336;8.652;2023-05-07T01:49:25;14.70;1.00
11536;DHT22;5824;49.336;8.652;2023-05-07T01:51:51;14.70;1.00
11536;DHT22;5824;49.336;8.652;2023-05-07T01:54:17;14.60;1.00
11536;DHT22;5824;49.336;8.652;2023-05-07T01:56:42;14.60;1.00
11536;DHT22;5824;49.336;8.652;2023-05-07T01:59:08;14.50;1.00
11536;DHT22;5824;49.336;8.652;2023-05-07T02:01:33;14.50;1.00
11536;DHT22;5824;49.336;8.652;2023-05-07T02:03:59;15.60;1.00
11536;DHT22;5824;49.336;8.652;2023-05-07T02:06:24;14.50;1.00
11536;DHT22;5824;49.336;8.652;2023-05-07T02:08:50;14.50;1.00
11536;DHT22;5824;49.336;8.652;2023-05-07T02:11:15;14.50;1.00
11536;DHT22;5824;49.336;8.652;2023-05-07T02:13:41;14.60;1.00
11536;DHT22;5824;49.336;8.652;2023-05-07T02:16:07;14.60;1.00
11536;DHT22;5824;49.336;8.652;2023-05-07T02:18:32;14.60;1.00
11536;DHT22;5824;49.336;8.652;2023-05-07T02:20:58;14.70;1.00
11536;DHT22;5824;49.336;8.652;2023-05-07T02:23:24;14.80;1.00
11536;DHT22;5824;49.336;8.652;2023-05-07T02:25:50;14.80;1.00
11536;DHT22;5824;49.336;8.652;2023-05-07T02:28:16;14.90;1.00
11536;DHT22;5824;49.336;8.652;2023-05-07T02:30:41;15.00;1.00
11536;DHT22;5824;49.336;8.652;2023-05-07T02:33:07;15.00;1.00
11536;DHT22;5824;49.336;8.652;2023-05-07T02:35:33;15.10;1.00
11536;DHT22;5824;49.336;8.652;2023-05-07T02:37:59;15.20;1.00
11536;DHT22;5824;49.336;8.652;2023-05-07T02:40:24;15.10;1.00
11536;DHT22;5824;49.336;8.652;2023-05-07T02:42:50;15.50;1.00
11536;DHT22;5824;49.336;8.652;2023-05-07T02:45:15;14.90;1.00
11536;DHT22;5824;49.336;8.652;2023-05-07T02:47:41;14.80;1.00
11536;DHT22;5824;49.336;8.652;2023-05-07T02:50:07;14.70;1.00
11536;DHT22;5824;49.336;8.652;2023-05-07T02:52:32;14.60;1.00
11536;DHT22;5824;49.336;8.652;2023-05-07T02:54:58;14.50;1.00
11536;DHT22;5824;49.336;8.652;2023-05-07T02:57:23;14.40;1.00
11536;DHT22;5824;49.336;8.652;2023-05-07T02:59:49;14.30;1.00
11536;DHT22;5824;49.336;8.652;2023-05-07T03:02:14;14.20;1.00
11536;DHT22;5824;49.336;8.652;2023-05-07T03:04:40;14.20;1.00
11536;DHT22;5824;49.336;8.652;2023-05-07T03:07:06;14.10;1.00
11536;DHT22;5824;49.336;8.652;2023-05-07T03:09:31;14.00;1.00
11536;DHT22;5824;49.336;8.652;2023-05-07T03:11:57;14.00;1.00
11536;DHT22;5824;49.336;8.652;2023-05-07T03:14:23;14.00;1.00
11536;DHT22;5824;49.336;8.652;2023-05-07T03:16:49;14.00;1.00
11536;DHT22;5824;49.336;8.652;2023-05-07T03:19:15;14.00;1.00
11536;DHT22;5824;49.336;8.652;2023-05-07T03:21:40;14.00;1.00
11536;DHT22;5824;49.336;8.652;2023-05-07T03:24:06;14.00;1.00
11536;DHT22;5824;49.336;8.652;2023-05-07T03:26:31;14.00;1.00
11536;DHT22;5824;49.336;8.652;2023-05-07T03:28:57;14.00;1.00
11536;DHT22;5824;49.336;8.652;2023-05-07T03:31:22;14.00;1.00
11536;DHT22;5824;49.336;8.652;2023-05-07T03:33:53;14.00;1.00
11536;DHT22;5824;49.336;8.652;2023-05-07T03:36:19;13.90;1.00
11536;DHT22;5824;49.336;8.652;2023-05-07T03:38:44;13.80;1.00
11536;DHT22;5824;49.336;8.652;2023-05-07T03:41:10;13.90;1.00
11536;DHT22;5824;49.336;8.652;2023-05-07T03:43:35;13.90;1.00
11536;DHT22;5824;49.336;8.652;2023-05-07T03:46:01;13.90;1.00
11536;DHT22;5824;49.336;8.652;2023-05-07T03:48:26;13.90;1.00
11536;DHT22;5824;49.336;8.652;2023-05-07T03:50:52;13.90;1.00
11536;DHT22;5824;49.336;8.652;2023-05-07T03:53:17;13.90;1.00
11536;DHT22;5824;49.336;8.652;2023-05-07T03:55:43;13.90;1.00
11536;DHT22;5824;49.336;8.652;2023-05-07T03:58:08;13.90;1.00
11536;DHT22;5824;49.336;8.652;2023-05-07T04:00:34;13.90;1.00
11536;DHT22;5824;49.336;8.652;2023-05-07T04:03:03;13.90;1.00
11536;DHT22;5824;49.336;8.652;2023-05-07T04:05:30;13.90;1.00
11536;DHT22;5824;49.336;8.652;2023-05-07T04:07:55;13.80;1.00
11536;DHT22;5824;49.336;8.652;2023-05-07T04:10:21;13.80;1.00
11536;DHT22;5824;49.336;8.652;2023-05-07T04:12:46;13.80;1.00
11536;DHT22;5824;49.336;8.652;2023-05-07T04:15:12;13.80;1.00
11536;DHT22;5824;49.336;8.652;2023-05-07T04:17:38;13.80;1.00
11536;DHT22;5824;49.336;8.652;2023-05-07T04:20:04;13.90;1.00
11536;DHT22;5824;49.336;8.652;2023-05-07T04:24:55;13.90;1.00
11536;DHT22;5824;49.336;8.652;2023-05-07T04:27:21;13.90;1.00
11536;DHT22;5824;49.336;8.652;2023-05-07T04:29:47;13.90;1.00
11536;DHT22;5824;49.336;8.652;2023-05-07T04:32:13;14.00;1.00
11536;DHT22;5824;49.336;8.652;2023-05-07T04:34:38;14.00;1.00
11536;DHT22;5824;49.336;8.652;2023-05-07T04:37:04;13.90;1.00
11536;DHT22;5824;49.336;8.652;2023-05-07T04:39:29;13.90;1.00
11536;DHT22;5824;49.336;8.652;2023-05-07T04:41:55;14.00;1.00
11536;DHT22;5824;49.336;8.652;2023-05-07T04:44:20;14.00;1.00
11536;DHT22;5824;49.336;8.652;2023-05-07T04:46:46;14.00;1.00
11536;DHT22;5824;49.336;8.652;2023-05-07T04:49:11;14.10;1.00
11536;DHT22;5824;49.336;8.652;2023-05-07T04:51:37;14.00;1.00
11536;DHT22;5824;49.336;8.652;2023-05-07T04:54:03;14.00;1.00
11536;DHT22;5824;49.336;8.652;2023-05-07T04:56:30;14.00;1.00
11536;DHT22;5824;49.336;8.652;2023-05-07T04:58:55;14.00;1.00
11536;DHT22;5824;49.336;8.652;2023-05-07T05:01:21;14.10;1.00
11536;DHT22;5824;49.336;8.652;2023-05-07T05:03:46;14.20;1.00
11536;DHT22;5824;49.336;8.652;2023-05-07T05:06:12;14.30;1.00
11536;DHT22;5824;49.336;8.652;2023-05-07T05:08:37;14.20;1.00
11536;DHT22;5824;49.336;8.652;2023-05-07T05:11:03;14.30;1.00
11536;DHT22;5824;49.336;8.652;2023-05-07T05:13:28;14.40;1.00
11536;DHT22;5824;49.336;8.652;2023-05-07T05:15:55;14.60;1.00
11536;DHT22;5824;49.336;8.652;2023-05-07T05:18:21;14.70;1.00
11536;DHT22;5824;49.336;8.652;2023-05-07T05:20:46;14.80;1.00
11536;DHT22;5824;49.336;8.652;2023-05-07T05:23:12;15.00;1.00
11536;DHT22;5824;49.336;8.652;2023-05-07T05:25:37;15.10;1.00
11536;DHT22;5824;49.336;8.652;2023-05-07T05:28:04;15.30;1.00
11536;DHT22;5824;49.336;8.652;2023-05-07T05:30:30;15.40;1.00
11536;DHT22;5824;49.336;8.652;2023-05-07T05:32:55;15.50;1.00
11536;DHT22;5824;49.336;8.652;2023-05-07T05:35:21;15.50;1.00
11536;DHT22;5824;49.336;8.652;2023-05-07T05:37:46;15.80;1.00
11536;DHT22;5824;49.336;8.652;2023-05-07T05:40:13;15.90;1.00
11536;DHT22;5824;49.336;8.652;2023-05-07T05:42:38;16.10;1.00
11536;DHT22;5824;49.336;8.652;2023-05-07T05:45:04;16.40;1.00
11536;DHT22;5824;49.336;8.652;2023-05-07T05:47:30;16.70;1.00
11536;DHT22;5824;49.336;8.652;2023-05-07T05:49:56;17.10;1.00
11536;DHT22;5824;49.336;8.652;2023-05-07T05:52:21;17.30;1.00
11536;DHT22;5824;49.336;8.652;2023-05-07T05:54:49;17.60;1.00
11536;DHT22;5824;49.336;8.652;2023-05-07T05:57:14;17.90;1.00
11536;DHT22;5824;49.336;8.652;2023-05-07T05:59:40;18.20;1.00
11536;DHT22;5824;49.336;8.652;2023-05-07T06:02:06;18.50;1.00
11536;DHT22;5824;49.336;8.652;2023-05-07T06:04:32;18.70;1.00
11536;DHT22;5824;49.336;8.652;2023-05-07T06:06:57;18.80;1.00
11536;DHT22;5824;49.336;8.652;2023-05-07T06:09:23;19.00;1.00
11536;DHT22;5824;49.336;8.652;2023-05-07T06:11:48;19.00;1.00
11536;DHT22;5824;49.336;8.652;2023-05-07T06:14:14;19.10;1.00
11536;DHT22;5824;49.336;8.652;2023-05-07T06:16:39;20.30;1.00
11536;DHT22;5824;49.336;8.652;2023-05-07T06:19:05;19.30;1.00
11536;DHT22;5824;49.336;8.652;2023-05-07T06:21:31;19.40;1.00
11536;DHT22;5824;49.336;8.652;2023-05-07T06:23:56;19.60;1.00
11536;DHT22;5824;49.336;8.652;2023-05-07T06:26:22;19.70;1.00
11536;DHT22;5824;49.336;8.652;2023-05-07T06:28:47;19.70;1.00
11536;DHT22;5824;49.336;8.652;2023-05-07T06:31:18;19.70;1.00
11536;DHT22;5824;49.336;8.652;2023-05-07T06:33:46;19.90;1.00
11536;DHT22;5824;49.336;8.652;2023-05-07T06:36:11;19.90;1.00
11536;DHT22;5824;49.336;8.652;2023-05-07T06:38:37;20.00;1.00
11536;DHT22;5824;49.336;8.652;2023-05-07T06:41:02;20.00;1.00
11536;DHT22;5824;49.336;8.652;2023-05-07T06:43:28;20.00;1.00
11536;DHT22;5824;49.336;8.652;2023-05-07T06:45:53;20.20;1.00
11536;DHT22;5824;49.336;8.652;2023-05-07T06:48:19;20.30;1.00
11536;DHT22;5824;49.336;8.652;2023-05-07T06:50:44;20.40;1.00
11536;DHT22;5824;49.336;8.652;2023-05-07T06:53:10;20.50;1.00
11536;DHT22;5824;49.336;8.652;2023-05-07T06:55:36;20.60;1.00
11536;DHT22;5824;49.336;8.652;2023-05-07T06:58:03;20.70;1.00
11536;DHT22;5824;49.336;8.652;2023-05-07T07:00:29;21.00;1.00
11536;DHT22;5824;49.336;8.652;2023-05-07T07:02:55;21.00;1.00
11536;DHT22;5824;49.336;8.652;2023-05-07T07:05:21;20.90;1.00
11536;DHT22;5824;49.336;8.652;2023-05-07T07:07:46;20.90;1.00
11536;DHT22;5824;49.336;8.652;2023-05-07T07:10:21;21.00;1.00
11536;DHT22;5824;49.336;8.652;2023-05-07T07:12:46;21.10;1.00
11536;DHT22;5824;49.336;8.652;2023-05-07T07:15:13;21.30;1.00
11536;DHT22;5824;49.336;8.652;2023-05-07T07:17:39;21.50;1.00
11536;DHT22;5824;49.336;8.652;2023-05-07T07:20:05;21.60;1.00
11536;DHT22;5824;49.336;8.652;2023-05-07T07:22:30;21.70;1.00
11536;DHT22;5824;49.336;8.652;2023-05-07T07:24:56;21.90;1.00
11536;DHT22;5824;49.336;8.652;2023-05-07T07:27:21;22.30;1.00
11536;DHT22;5824;49.336;8.652;2023-05-07T07:29:47;22.70;1.00
11536;DHT22;5824;49.336;8.652;2023-05-07T07:32:12;23.20;1.00
11536;DHT22;5824;49.336;8.652;2023-05-07T07:34:38;23.30;1.00
11536;DHT22;5824;49.336;8.652;2023-05-07T07:37:03;23.30;1.00
11536;DHT22;5824;49.336;8.652;2023-05-07T07:39:32;23.40;1.00
11536;DHT22;5824;49.336;8.652;2023-05-07T07:41:57;23.40;1.00
11536;DHT22;5824;49.336;8.652;2023-05-07T07:44:23;23.60;1.00
11536;DHT22;5824;49.336;8.652;2023-05-07T07:46:48;23.70;1.00
11536;DHT22;5824;49.336;8.652;2023-05-07T07:49:14;23.70;1.00
11536;DHT22;5824;49.336;8.652;2023-05-07T07:51:40;23.80;1.00
11536;DHT22;5824;49.336;8.652;2023-05-07T07:54:06;24.10;1.00
11536;DHT22;5824;49.336;8.652;2023-05-07T07:56:32;24.20;1.00
11536;DHT22;5824;49.336;8.652;2023-05-07T07:59:01;23.90;1.00
11536;DHT22;5824;49.336;8.652;2023-05-07T08:01:29;23.70;1.00
11536;DHT22;5824;49.336;8.652;2023-05-07T08:03:54;23.50;1.00
11536;DHT22;5824;49.336;8.652;2023-05-07T08:06:20;23.50;1.00
11536;DHT22;5824;49.336;8.652;2023-05-07T08:08:45;23.70;1.00
11536;DHT22;5824;49.336;8.652;2023-05-07T08:11:11;23.90;1.00
11536;DHT22;5824;49.336;8.652;2023-05-07T08:13:37;23.90;1.00
11536;DHT22;5824;49.336;8.652;2023-05-07T08:16:03;24.10;1.00
11536;DHT22;5824;49.336;8.652;2023-05-07T08:18:29;24.20;1.00
11536;DHT22;5824;49.336;8.652;2023-05-07T08:20:55;24.50;1.00
11536;DHT22;5824;49.336;8.652;2023-05-07T08:23:21;24.90;1.00
11536;DHT22;5824;49.336;8.652;2023-05-07T08:25:46;25.00;1.00
11536;DHT22;5824;49.336;8.652;2023-05-07T08:28:12;25.20;1.00
11536;DHT22;5824;49.336;8.652;2023-05-07T08:30:38;25.50;1.00
11536;DHT22;5824;49.336;8.652;2023-05-07T08:33:03;25.70;1.00
11536;DHT22;5824;49.336;8.652;2023-05-07T08:35:29;25.40;1.00
11536;DHT22;5824;49.336;8.652;2023-05-07T08:37:55;25.20;1.00
11536;DHT22;5824;49.336;8.652;2023-05-07T08:40:22;25.90;1.00
11536;DHT22;5824;49.336;8.652;2023-05-07T08:42:52;26.80;1.00
11536;DHT22;5824;49.336;8.652;2023-05-07T08:45:19;27.50;1.00
11536;DHT22;5824;49.336;8.652;2023-05-07T08:47:47;27.80;1.00
11536;DHT22;5824;49.336;8.652;2023-05-07T08:50:15;27.90;1.00
11536;DHT22;5824;49.336;8.652;2023-05-07T08:52:41;28.20;1.00
11536;DHT22;5824;49.336;8.652;2023-05-07T08:55:08;29.20;1.00
11536;DHT22;5824;49.336;8.652;2023-05-07T08:57:34;30.30;1.00
11536;DHT22;5824;49.336;8.652;2023-05-07T08:59:59;31.80;1.00
11536;DHT22;5824;49.336;8.652;2023-05-07T09:02:25;31.90;1.00
11536;DHT22;5824;49.336;8.652;2023-05-07T09:04:51;31.50;1.00
11536;DHT22;5824;49.336;8.652;2023-05-07T09:07:16;32.20;1.00
11536;DHT22;5824;49.336;8.652;2023-05-07T09:09:44;33.80;1.00
11536;DHT22;5824;49.336;8.652;2023-05-07T09:12:10;34.80;1.00
11536;DHT22;5824;49.336;8.652;2023-05-07T09:14:35;35.40;1.00
11536;DHT22;5824;49.336;8.652;2023-05-07T09:17:01;35.30;1.00
11536;DHT22;5824;49.336;8.652;2023-05-07T09:19:27;34.80;1.00
11536;DHT22;5824;49.336;8.652;2023-05-07T09:22:01;34.80;1.00
11536;DHT22;5824;49.336;8.652;2023-05-07T09:24:28;34.80;1.00
11536;DHT22;5824;49.336;8.652;2023-05-07T09:26:57;34.70;1.00
11536;DHT22;5824;49.336;8.652;2023-05-07T09:29:23;33.10;1.00
11536;DHT22;5824;49.336;8.652;2023-05-07T09:31:48;31.70;1.00
11536;DHT22;5824;49.336;8.652;2023-05-07T09:34:14;30.90;1.00
11536;DHT22;5824;49.336;8.652;2023-05-07T09:36:39;30.20;1.00
11536;DHT22;5824;49.336;8.652;2023-05-07T09:39:05;29.60;1.00
11536;DHT22;5824;49.336;8.652;2023-05-07T09:41:31;29.10;1.00
11536;DHT22;5824;49.336;8.652;2023-05-07T09:43:58;29.10;1.00
11536;DHT22;5824;49.336;8.652;2023-05-07T09:46:30;29.40;1.00
11536;DHT22;5824;49.336;8.652;2023-05-07T09:49:01;29.80;1.00
11536;DHT22;5824;49.336;8.652;2023-05-07T09:51:47;30.50;1.00
11536;DHT22;5824;49.336;8.652;2023-05-07T09:54:14;30.70;1.00
11536;DHT22;5824;49.336;8.652;2023-05-07T09:56:40;30.00;1.00
11536;DHT22;5824;49.336;8.652;2023-05-07T09:59:07;29.70;1.00
11536;DHT22;5824;49.336;8.652;2023-05-07T10:01:36;29.90;1.00
11536;DHT22;5824;49.336;8.652;2023-05-07T10:04:02;29.90;1.00
11536;DHT22;5824;49.336;8.652;2023-05-07T10:06:31;30.00;1.00
11536;DHT22;5824;49.336;8.652;2023-05-07T10:08:57;30.20;1.00
11536;DHT22;5824;49.336;8.652;2023-05-07T10:11:23;30.70;1.00
11536;DHT22;5824;49.336;8.652;2023-05-07T10:13:48;30.90;1.00
11536;DHT22;5824;49.336;8.652;2023-05-07T10:16:15;30.60;1.00
11536;DHT22;5824;49.336;8.652;2023-05-07T10:18:43;30.30;1.00
11536;DHT22;5824;49.336;8.652;2023-05-07T10:21:16;29.90;1.00
11536;DHT22;5824;49.336;8.652;2023-05-07T10:23:45;30.00;1.00
11536;DHT22;5824;49.336;8.652;2023-05-07T10:26:12;31.90;1.00
11536;DHT22;5824;49.336;8.652;2023-05-07T10:28:40;33.60;1.00
11536;DHT22;5824;49.336;8.652;2023-05-07T10:34:11;35.90;1.00
11536;DHT22;5824;49.336;8.652;2023-05-07T10:36:38;37.00;1.00
11536;DHT22;5824;49.336;8.652;2023-05-07T10:39:05;37.70;1.00
11536;DHT22;5824;49.336;8.652;2023-05-07T10:41:31;37.90;1.00
11536;DHT22;5824;49.336;8.652;2023-05-07T10:43:57;37.30;1.00
11536;DHT22;5824;49.336;8.652;2023-05-07T10:46:22;36.90;1.00
11536;DHT22;5824;49.336;8.652;2023-05-07T10:51:26;37.20;1.00
11536;DHT22;5824;49.336;8.652;2023-05-07T10:56:39;37.50;1.00
11536;DHT22;5824;49.336;8.652;2023-05-07T11:01:56;38.10;1.00
11536;DHT22;5824;49.336;8.652;2023-05-07T11:04:23;40.50;1.00
11536;DHT22;5824;49.336;8.652;2023-05-07T11:07:25;39.20;1.00
11536;DHT22;5824;49.336;8.652;2023-05-07T11:15:04;40.70;1.00
11536;DHT22;5824;49.336;8.652;2023-05-07T11:17:31;41.00;1.00
11536;DHT22;5824;49.336;8.652;2023-05-07T11:19:57;41.40;1.00
11536;DHT22;5824;49.336;8.652;2023-05-07T11:25:06;41.40;1.00
11536;DHT22;5824;49.336;8.652;2023-05-07T11:27:32;41.40;1.00
11536;DHT22;5824;49.336;8.652;2023-05-07T11:37:44;39.60;1.00
11536;DHT22;5824;49.336;8.652;2023-05-07T11:40:11;39.60;1.00
11536;DHT22;5824;49.336;8.652;2023-05-07T11:42:39;39.90;1.00
11536;DHT22;5824;49.336;8.652;2023-05-07T11:52:50;40.30;1.00
11536;DHT22;5824;49.336;8.652;2023-05-07T11:55:18;40.30;1.00
11536;DHT22;5824;49.336;8.652;2023-05-07T12:15:35;39.90;1.00
11536;DHT22;5824;49.336;8.652;2023-05-07T12:18:01;39.80;1.00
11536;DHT22;5824;49.336;8.652;2023-05-07T12:43:39;39.40;1.00
11536;DHT22;5824;49.336;8.652;2023-05-07T13:04:03;38.10;1.00
11536;DHT22;5824;49.336;8.652;2023-05-07T13:06:30;39.60;1.00
11536;DHT22;5824;49.336;8.652;2023-05-07T13:24:00;32.30;1.00
11536;DHT22;5824;49.336;8.652;2023-05-07T13:26:25;32.20;1.00
11536;DHT22;5824;49.336;8.652;2023-05-07T13:28:55;32.00;1.00
11536;DHT22;5824;49.336;8.652;2023-05-07T13:36:31;30.10;1.00
11536;DHT22;5824;49.336;8.652;2023-05-07T13:39:00;29.50;1.00
11536;DHT22;5824;49.336;8.652;2023-05-07T13:54:48;29.90;1.00
11536;DHT22;5824;49.336;8.652;2023-05-07T13:57:14;29.40;1.00
11536;DHT22;5824;49.336;8.652;2023-05-07T13:59:40;28.90;1.00
11536;DHT22;5824;49.336;8.652;2023-05-07T14:02:06;28.20;1.00
11536;DHT22;5824;49.336;8.652;2023-05-07T14:04:32;27.90;1.00
11536;DHT22;5824;49.336;8.652;2023-05-07T14:14:25;26.80;1.00
11536;DHT22;5824;49.336;8.652;2023-05-07T14:24:20;21.90;1.00
11536;DHT22;5824;49.336;8.652;2023-05-07T14:36:59;17.70;1.00
11536;DHT22;5824;49.336;8.652;2023-05-07T14:39:24;17.50;1.00
11536;DHT22;5824;49.336;8.652;2023-05-07T14:49:21;16.70;1.00
11536;DHT22;5824;49.336;8.652;2023-05-07T15:01:59;16.50;1.00
11536;DHT22;5824;49.336;8.652;2023-05-07T15:04:25;16.60;1.00
11536;DHT22;5824;49.336;8.652;2023-05-07T15:06:50;16.70;1.00
11536;DHT22;5824;49.336;8.652;2023-05-07T15:09:16;16.80;1.00
11536;DHT22;5824;49.336;8.652;2023-05-07T15:19:18;17.10;1.00
11536;DHT22;5824;49.336;8.652;2023-05-07T15:21:44;16.90;1.00
11536;DHT22;5824;49.336;8.652;2023-05-07T15:24:09;17.10;1.00
11536;DHT22;5824;49.336;8.652;2023-05-07T15:26:35;17.20;1.00
11536;DHT22;5824;49.336;8.652;2023-05-07T15:29:00;17.20;1.00
11536;DHT22;5824;49.336;8.652;2023-05-07T17:16:32;16.90;1.00
11536;DHT22;5824;49.336;8.652;2023-05-07T17:18:58;16.80;2.20
11536;DHT22;5824;49.336;8.652;2023-05-07T17:21:23;16.90;6.50
11536;DHT22;5824;49.336;8.652;2023-05-07T17:23:49;17.00;14.60
11536;DHT22;5824;49.336;8.652;2023-05-07T17:26:15;17.10;15.50
11536;DHT22;5824;49.336;8.652;2023-05-07T17:28:41;17.20;16.90
11536;DHT22;5824;49.336;8.652;2023-05-07T17:41:09;17.50;18.50
11536;DHT22;5824;49.336;8.652;2023-05-07T17:43:34;17.50;16.50
11536;DHT22;5824;49.336;8.652;2023-05-07T17:46:00;17.40;17.80
11536;DHT22;5824;49.336;8.652;2023-05-07T17:48:27;17.30;20.60
11536;DHT22;5824;49.336;8.652;2023-05-07T17:50:52;17.30;20.00
11536;DHT22;5824;49.336;8.652;2023-05-07T17:53:18;17.30;21.10
11536;DHT22;5824;49.336;8.652;2023-05-07T18:03:12;17.20;18.80
11536;DHT22;5824;49.336;8.652;2023-05-07T18:05:38;17.20;21.40
11536;DHT22;5824;49.336;8.652;2023-05-07T18:08:05;17.10;18.30
11536;DHT22;5824;49.336;8.652;2023-05-07T18:33:21;16.70;22.60
11536;DHT22;5824;49.336;8.652;2023-05-07T18:35:46;16.80;23.20
11536;DHT22;5824;49.336;8.652;2023-05-07T18:38:12;16.80;28.90
11536;DHT22;5824;49.336;8.652;2023-05-07T18:40:38;16.90;36.30
11536;DHT22;5824;49.336;8.652;2023-05-07T18:43:08;16.90;30.50
11536;DHT22;5824;49.336;8.652;2023-05-07T18:55:51;16.20;23.70
11536;DHT22;5824;49.336;8.652;2023-05-07T19:26:10;15.80;29.90
11536;DHT22;5824;49.336;8.652;2023-05-07T20:24:36;16.00;41.00
11536;DHT22;5824;49.336;8.652;2023-05-07T20:42:08;16.10;40.90
11536;DHT22;5824;49.336;8.652;2023-05-07T21:02:08;16.10;57.30
11536;DHT22;5824;49.336;8.652;2023-05-07T22:15:53;16.00;65.50
11536;DHT22;5824;49.336;8.652;2023-05-07T22:31:02;16.10;77.00
11536;DHT22;5824;49.336;8.652;2023-05-07T22:45:57;16.30;69.30
11536;DHT22;5824;49.336;8.652;2023-05-07T22:48:24;16.30;63.10
